createdAt,value
2019-02-27T00:00:34.142Z,5.90
2019-02-27T00:03:02.925Z,5.80
2019-02-27T00:05:31.654Z,5.80
2019-02-27T00:08:00.432Z,5.70
2019-02-27T00:10:29.215Z,5.70
2019-02-27T00:12:58.008Z,5.70
2019-02-27T00:15:26.823Z,5.60
2019-02-27T00:17:55.804Z,5.50
2019-02-27T00:20:24.667Z,5.40
2019-02-27T00:22:53.400Z,5.30
2019-02-27T00:25:22.154Z,5.30
2019-02-27T00:27:50.957Z,5.30
2019-02-27T00:30:19.729Z,5.30
2019-02-27T00:32:51.014Z,5.30
2019-02-27T00:35:18.993Z,5.30
2019-02-27T00:37:51.857Z,5.20
2019-02-27T00:40:18.217Z,5.20
2019-02-27T00:42:47.024Z,5.10
2019-02-27T00:45:15.788Z,5.10
2019-02-27T00:47:44.520Z,5.20
2019-02-27T00:50:13.280Z,5.20
2019-02-27T00:52:42.348Z,5.20
2019-02-27T00:55:11.144Z,5.20
2019-02-27T00:57:39.887Z,5.20
2019-02-27T01:00:14.713Z,5.20
2019-02-27T01:02:43.526Z,5.10
2019-02-27T01:05:12.449Z,5.10
2019-02-27T01:07:41.332Z,5.10
2019-02-27T01:10:13.087Z,5.10
2019-02-27T01:12:41.939Z,5.00
2019-02-27T01:15:12.139Z,4.90
2019-02-27T01:17:40.918Z,4.90
2019-02-27T01:20:12.245Z,4.90
2019-02-27T01:22:41.030Z,4.80
2019-02-27T01:25:09.885Z,4.80
2019-02-27T01:27:38.754Z,4.80
2019-02-27T01:30:11.001Z,4.80
2019-02-27T01:32:39.752Z,4.80
2019-02-27T01:35:10.185Z,4.90
2019-02-27T01:37:39.023Z,4.80
2019-02-27T01:40:17.141Z,4.80
2019-02-27T01:42:44.238Z,4.70
2019-02-27T01:45:15.289Z,4.60
2019-02-27T01:47:44.072Z,4.50
2019-02-27T01:50:24.530Z,4.50
2019-02-27T01:52:53.305Z,4.50
2019-02-27T01:55:22.664Z,4.50
2019-02-27T01:57:51.467Z,4.40
2019-02-27T02:00:23.013Z,4.40
2019-02-27T02:02:50.878Z,4.40
2019-02-27T02:05:19.904Z,4.30
2019-02-27T02:07:48.924Z,4.20
2019-02-27T02:10:18.008Z,4.20
2019-02-27T02:12:52.881Z,4.20
2019-02-27T02:15:27.917Z,4.30
2019-02-27T02:18:11.878Z,4.30
2019-02-27T02:20:50.941Z,4.40
2019-02-27T02:23:25.208Z,4.30
2019-02-27T02:26:01.352Z,4.30
2019-02-27T02:29:04.738Z,4.30
2019-02-27T02:31:57.658Z,4.30
2019-02-27T02:34:41.305Z,4.30
2019-02-27T02:37:18.886Z,4.20
2019-02-27T02:40:07.001Z,4.20
2019-02-27T02:43:03.132Z,4.20
2019-02-27T02:45:49.438Z,4.20
2019-02-27T02:48:31.020Z,4.20
2019-02-27T02:51:28.980Z,4.10
2019-02-27T02:54:05.261Z,4.10
2019-02-27T02:56:42.282Z,4.10
2019-02-27T02:59:46.958Z,4.10
2019-02-27T03:02:36.720Z,4.20
2019-02-27T03:05:37.040Z,4.10
2019-02-27T03:08:11.670Z,4.20
2019-02-27T03:10:52.334Z,4.20
2019-02-27T03:13:47.955Z,4.30
2019-02-27T03:16:41.121Z,4.30
2019-02-27T03:19:26.062Z,4.30
2019-02-27T03:22:15.620Z,4.20
2019-02-27T03:24:53.223Z,4.20
2019-02-27T03:27:30.932Z,4.20
2019-02-27T03:30:17.487Z,4.30
2019-02-27T03:33:23.063Z,4.30
2019-02-27T03:36:18.129Z,4.20
2019-02-27T03:39:07.314Z,4.10
2019-02-27T03:41:41.827Z,4.10
2019-02-27T03:44:13.730Z,4.10
2019-02-27T03:46:51.694Z,4.10
2019-02-27T03:49:45.932Z,4.00
2019-02-27T03:52:36.327Z,4.00
2019-02-27T03:55:32.859Z,3.90
2019-02-27T03:58:34.818Z,3.80
2019-02-27T04:01:09.374Z,3.80
2019-02-27T04:03:57.738Z,3.70
2019-02-27T04:06:46.081Z,3.70
2019-02-27T04:09:18.551Z,3.70
2019-02-27T04:11:45.305Z,3.50
2019-02-27T04:14:28.232Z,3.50
2019-02-27T04:16:57.090Z,3.50
2019-02-27T04:19:25.863Z,3.50
2019-02-27T04:22:00.455Z,3.50
2019-02-27T04:24:25.222Z,3.50
2019-02-27T04:26:54.084Z,3.50
2019-02-27T04:29:22.869Z,3.40
2019-02-27T04:31:51.699Z,3.40
2019-02-27T04:34:20.447Z,3.40
2019-02-27T04:36:49.206Z,3.30
2019-02-27T04:39:17.977Z,3.30
2019-02-27T04:41:46.758Z,3.20
2019-02-27T04:44:15.558Z,3.20
2019-02-27T04:46:44.321Z,3.10
2019-02-27T04:49:13.360Z,3.10
2019-02-27T04:51:42.148Z,3.00
2019-02-27T04:54:10.990Z,2.80
2019-02-27T04:56:39.791Z,2.80
2019-02-27T04:59:08.576Z,2.80
2019-02-27T05:01:37.462Z,2.90
2019-02-27T05:04:06.344Z,2.90
2019-02-27T05:06:35.076Z,2.80
2019-02-27T05:09:05.804Z,2.80
2019-02-27T05:11:34.561Z,2.80
2019-02-27T05:14:03.408Z,2.70
2019-02-27T05:16:32.190Z,2.60
2019-02-27T05:19:03.886Z,2.60
2019-02-27T05:21:31.452Z,2.60
2019-02-27T05:24:00.200Z,2.60
2019-02-27T05:26:28.978Z,2.60
2019-02-27T05:28:57.817Z,2.50
2019-02-27T05:31:26.558Z,2.50
2019-02-27T05:33:55.317Z,2.50
2019-02-27T05:36:24.077Z,2.50
2019-02-27T05:38:52.821Z,2.50
2019-02-27T05:41:21.657Z,2.50
2019-02-27T05:43:50.705Z,2.40
2019-02-27T05:46:19.484Z,2.30
2019-02-27T05:48:50.798Z,2.30
2019-02-27T05:51:18.734Z,2.20
2019-02-27T05:53:47.610Z,2.20
2019-02-27T05:56:16.543Z,2.20
2019-02-27T05:58:45.340Z,2.20
2019-02-27T06:01:14.088Z,2.30
2019-02-27T06:03:42.841Z,2.30
2019-02-27T06:06:12.376Z,2.40
2019-02-27T06:08:41.254Z,2.40
2019-02-27T06:11:10.001Z,2.50
2019-02-27T06:13:38.760Z,2.50
2019-02-27T06:16:09.156Z,2.60
2019-02-27T06:18:38.112Z,2.60
2019-02-27T06:21:06.900Z,2.60
2019-02-27T06:23:37.836Z,2.60
2019-02-27T06:26:06.214Z,2.60
2019-02-27T06:28:35.047Z,2.60
2019-02-27T06:31:03.882Z,2.60
2019-02-27T06:33:32.626Z,2.70
2019-02-27T06:36:01.449Z,2.80
2019-02-27T06:38:30.264Z,2.70
2019-02-27T06:40:59.464Z,2.80
2019-02-27T06:43:28.327Z,2.80
2019-02-27T06:45:57.209Z,2.80
2019-02-27T06:48:26.064Z,2.80
2019-02-27T06:50:54.804Z,2.90
2019-02-27T06:53:23.603Z,2.90
2019-02-27T06:55:52.377Z,3.10
2019-02-27T06:58:21.147Z,3.20
2019-02-27T07:00:49.898Z,3.40
2019-02-27T07:03:18.690Z,3.50
2019-02-27T07:05:48.293Z,3.70
2019-02-27T07:08:17.629Z,3.90
2019-02-27T07:10:46.368Z,3.90
2019-02-27T07:13:15.232Z,4.00
2019-02-27T07:15:47.909Z,4.20
2019-02-27T07:18:14.584Z,4.20
2019-02-27T07:20:43.354Z,4.40
2019-02-27T07:23:12.110Z,4.60
2019-02-27T07:25:42.170Z,4.70
2019-02-27T07:28:11.370Z,5.00
2019-02-27T07:30:42.476Z,5.20
2019-02-27T07:33:10.748Z,5.40
2019-02-27T07:35:39.492Z,5.80
2019-02-27T07:38:08.248Z,6.10
2019-02-27T07:40:37.023Z,6.60
2019-02-27T07:43:06.406Z,6.60
2019-02-27T07:45:35.211Z,6.90
2019-02-27T07:48:04.060Z,7.30
2019-02-27T07:50:32.854Z,7.50
2019-02-27T07:53:01.622Z,7.60
2019-02-27T07:55:30.358Z,7.90
2019-02-27T07:57:59.310Z,8.40
2019-02-27T08:00:28.100Z,8.50
2019-02-27T08:02:57.226Z,8.80
2019-02-27T08:05:44.583Z,9.00
2019-02-27T08:08:13.440Z,9.10
2019-02-27T08:10:42.270Z,9.50
2019-02-27T08:13:11.019Z,9.50
2019-02-27T08:15:39.858Z,9.80
2019-02-27T08:18:08.749Z,9.80
2019-02-27T08:20:37.629Z,10.10
2019-02-27T08:23:06.994Z,10.20
2019-02-27T08:25:38.496Z,10.40
2019-02-27T08:28:07.256Z,10.50
2019-02-27T08:30:36.027Z,10.70
2019-02-27T08:33:08.148Z,11.10
2019-02-27T08:35:35.319Z,11.30
2019-02-27T08:38:04.097Z,11.30
2019-02-27T08:40:32.858Z,11.80
2019-02-27T08:43:01.660Z,12.10
2019-02-27T08:45:30.139Z,12.50
2019-02-27T08:47:58.889Z,12.90
2019-02-27T08:50:29.204Z,13.00
2019-02-27T08:52:58.152Z,13.00
2019-02-27T08:55:27.001Z,13.20
2019-02-27T08:57:57.024Z,13.10
2019-02-27T09:00:31.096Z,13.30
2019-02-27T09:03:02.375Z,13.40
2019-02-27T09:05:30.171Z,13.80
2019-02-27T09:07:58.734Z,13.80
2019-02-27T09:10:30.397Z,13.80
2019-02-27T09:15:27.733Z,14.10
2019-02-27T09:17:59.101Z,14.20
2019-02-27T09:20:26.998Z,14.40
2019-02-27T09:22:55.913Z,14.80
2019-02-27T09:25:24.938Z,15.50
2019-02-27T09:27:53.670Z,15.60
2019-02-27T09:30:29.467Z,15.70
2019-02-27T09:32:56.910Z,16.40
2019-02-27T09:35:25.457Z,16.40
2019-02-27T09:37:53.910Z,16.90
2019-02-27T09:40:24.391Z,16.40
2019-02-27T09:42:53.746Z,16.80
2019-02-27T09:45:30.618Z,16.80
2019-02-27T09:48:00.860Z,16.80
2019-02-27T09:50:34.517Z,16.70
2019-02-27T09:53:04.209Z,16.80
2019-02-27T09:55:32.911Z,16.50
2019-02-27T09:58:01.692Z,15.60
2019-02-27T10:00:44.841Z,15.00
2019-02-27T10:03:13.304Z,15.30
2019-02-27T10:05:41.810Z,15.30
2019-02-27T10:08:11.645Z,15.50
2019-02-27T10:10:44.860Z,15.40
2019-02-27T10:13:10.524Z,15.10
2019-02-27T10:15:39.274Z,15.10
2019-02-27T10:18:07.837Z,15.40
2019-02-27T10:20:37.309Z,15.90
2019-02-27T10:23:06.621Z,16.10
2019-02-27T10:25:35.220Z,15.90
2019-02-27T10:28:04.816Z,15.70
2019-02-27T10:30:33.438Z,15.60
2019-02-27T10:33:03.369Z,15.80
2019-02-27T10:35:34.548Z,15.80
2019-02-27T10:38:02.660Z,16.00
2019-02-27T10:40:31.145Z,16.10
2019-02-27T10:42:59.742Z,16.20
2019-02-27T10:45:28.464Z,16.30
2019-02-27T10:47:56.944Z,16.10
2019-02-27T10:50:25.497Z,16.40
2019-02-27T10:52:53.992Z,16.30
2019-02-27T10:55:23.143Z,16.30
2019-02-27T10:57:51.739Z,16.70
2019-02-27T11:00:28.986Z,16.90
2019-02-27T11:02:57.828Z,16.70
2019-02-27T11:05:28.079Z,16.50
2019-02-27T11:07:56.603Z,16.40
2019-02-27T11:10:25.354Z,16.30
2019-02-27T11:12:53.914Z,16.50
2019-02-27T11:15:23.158Z,16.60
2019-02-27T11:17:51.684Z,16.30
2019-02-27T11:20:21.772Z,16.50
2019-02-27T11:22:50.529Z,16.50
2019-02-27T11:25:22.555Z,16.90
2019-02-27T11:27:51.797Z,17.60
2019-02-27T11:30:35.943Z,17.60
2019-02-27T11:33:01.989Z,17.50
2019-02-27T11:35:30.566Z,17.60
2019-02-27T11:37:59.135Z,17.80
2019-02-27T11:40:28.082Z,18.00
2019-02-27T11:42:56.747Z,18.40
2019-02-27T11:45:25.556Z,19.20
2019-02-27T11:47:54.067Z,20.50
2019-02-27T11:50:22.663Z,21.30
2019-02-27T11:52:51.466Z,21.90
2019-02-27T11:55:21.376Z,22.10
2019-02-27T11:57:50.040Z,22.90
2019-02-27T12:00:23.833Z,23.50
2019-02-27T12:02:52.463Z,24.70
2019-02-27T12:05:20.925Z,23.80
2019-02-27T12:07:51.293Z,24.20
2019-02-27T12:10:30.996Z,24.20
2019-02-27T12:13:01.223Z,24.30
2019-02-27T12:15:30.155Z,25.00
2019-02-27T12:18:01.478Z,24.40
2019-02-27T12:20:28.977Z,24.90
2019-02-27T12:22:57.526Z,24.60
2019-02-27T12:25:29.028Z,24.60
2019-02-27T12:27:56.752Z,25.20
2019-02-27T12:30:27.796Z,25.30
2019-02-27T12:32:57.048Z,25.10
2019-02-27T12:35:28.248Z,25.40
2019-02-27T12:37:56.762Z,25.20
2019-02-27T12:40:25.434Z,23.60
2019-02-27T12:42:54.256Z,23.30
2019-02-27T12:45:29.577Z,23.70
2019-02-27T12:47:57.895Z,24.20
2019-02-27T12:50:31.096Z,24.20
2019-02-27T12:52:59.014Z,25.00
2019-02-27T12:55:27.536Z,24.90
2019-02-27T12:57:56.040Z,24.60
2019-02-27T13:00:31.935Z,24.10
2019-02-27T13:03:00.500Z,24.60
2019-02-27T13:05:29.435Z,24.90
2019-02-27T13:07:58.037Z,24.60
2019-02-27T13:10:33.159Z,24.20
2019-02-27T13:12:59.563Z,24.50
2019-02-27T13:15:29.949Z,25.70
2019-02-27T13:17:58.616Z,26.20
2019-02-27T13:20:34.428Z,26.80
2019-02-27T13:23:05.137Z,26.60
2019-02-27T13:25:33.898Z,26.50
2019-02-27T13:28:02.376Z,26.40
2019-02-27T13:30:30.944Z,26.00
2019-02-27T13:33:01.244Z,26.00
2019-02-27T13:35:29.624Z,26.60
2019-02-27T13:37:58.123Z,27.00
2019-02-27T13:40:35.155Z,26.00
2019-02-27T13:43:01.206Z,25.30
2019-02-27T13:45:33.270Z,25.30
2019-02-27T13:48:04.978Z,25.60
2019-02-27T13:50:32.092Z,26.20
2019-02-27T13:53:00.591Z,25.50
2019-02-27T13:55:29.099Z,25.30
2019-02-27T13:57:59.769Z,25.20
2019-02-27T14:00:31.546Z,24.80
2019-02-27T14:03:00.000Z,25.60
2019-02-27T14:05:29.554Z,26.30
2019-02-27T14:07:58.769Z,26.40
2019-02-27T14:10:32.277Z,26.60
2019-02-27T14:13:00.938Z,27.40
2019-02-27T14:15:31.357Z,27.40
2019-02-27T14:18:01.303Z,26.90
2019-02-27T14:20:29.965Z,26.80
2019-02-27T14:22:58.428Z,26.80
2019-02-27T14:25:33.651Z,26.20
2019-02-27T14:28:02.183Z,25.80
2019-02-27T14:30:39.097Z,24.60
2019-02-27T14:33:07.663Z,24.50
2019-02-27T14:35:36.584Z,24.20
2019-02-27T14:38:05.443Z,24.50
2019-02-27T14:40:37.653Z,24.40
2019-02-27T14:43:04.719Z,24.70
2019-02-27T14:45:33.494Z,25.10
2019-02-27T14:48:01.976Z,25.30
2019-02-27T14:50:33.487Z,25.70
2019-02-27T14:53:01.064Z,25.80
2019-02-27T14:55:29.566Z,26.20
2019-02-27T14:57:58.049Z,26.10
2019-02-27T15:00:31.037Z,25.30
2019-02-27T15:02:59.539Z,24.40
2019-02-27T15:05:28.035Z,24.10
2019-02-27T15:07:56.570Z,24.20
2019-02-27T15:10:25.392Z,25.20
2019-02-27T15:12:55.532Z,24.80
2019-02-27T15:15:28.836Z,24.40
2019-02-27T15:17:57.602Z,24.00
2019-02-27T15:20:27.587Z,23.80
2019-02-27T15:22:56.508Z,24.30
2019-02-27T15:25:27.180Z,24.50
2019-02-27T15:27:58.377Z,23.80
2019-02-27T15:30:27.557Z,23.10
2019-02-27T15:32:56.051Z,22.20
2019-02-27T15:35:24.514Z,21.10
2019-02-27T15:37:53.119Z,19.90
2019-02-27T15:40:28.560Z,19.10
2019-02-27T15:42:54.410Z,18.40
2019-02-27T15:45:24.134Z,18.10
2019-02-27T15:47:52.788Z,18.00
2019-02-27T15:50:37.517Z,17.90
2019-02-27T15:53:06.294Z,17.80
2019-02-27T15:55:35.361Z,17.70
2019-02-27T15:58:04.225Z,17.60
2019-02-27T16:00:32.684Z,17.60
2019-02-27T16:03:01.156Z,17.40
2019-02-27T16:05:31.505Z,17.30
2019-02-27T16:08:00.385Z,17.20
2019-02-27T16:10:29.313Z,17.40
2019-02-27T16:13:01.047Z,17.20
2019-02-27T16:15:28.109Z,17.30
2019-02-27T16:17:56.665Z,17.90
2019-02-27T16:20:27.095Z,18.30
2019-02-27T16:22:55.720Z,18.50
2019-02-27T16:25:28.206Z,18.50
2019-02-27T16:27:56.693Z,18.50
2019-02-27T16:30:32.559Z,18.30
2019-02-27T16:33:00.134Z,18.00
2019-02-27T16:35:28.694Z,17.60
2019-02-27T16:37:57.965Z,17.30
2019-02-27T16:40:30.420Z,16.90
2019-02-27T16:42:58.884Z,16.50
2019-02-27T16:45:33.566Z,16.30
2019-02-27T16:48:00.657Z,16.30
2019-02-27T16:50:29.192Z,16.20
2019-02-27T16:52:57.958Z,16.20
2019-02-27T16:55:27.553Z,16.00
2019-02-27T16:57:57.682Z,15.80
2019-02-27T17:00:31.227Z,15.60
2019-02-27T17:02:59.868Z,15.50
2019-02-27T17:05:28.404Z,15.40
2019-02-27T17:08:00.278Z,15.30
2019-02-27T17:10:33.357Z,15.20
2019-02-27T17:13:02.100Z,14.90
2019-02-27T17:15:34.578Z,14.80
2019-02-27T17:18:01.636Z,14.80
2019-02-27T17:20:30.454Z,14.80
2019-02-27T17:22:59.206Z,14.70
2019-02-27T17:25:29.981Z,14.60
2019-02-27T17:27:58.588Z,14.50
2019-02-27T17:30:37.817Z,14.50
2019-02-27T17:33:05.690Z,14.30
2019-02-27T17:35:34.459Z,14.30
2019-02-27T17:38:03.345Z,14.10
2019-02-27T17:40:36.467Z,14.00
2019-02-27T17:43:02.580Z,13.90
2019-02-27T17:45:31.360Z,13.90
2019-02-27T17:48:00.167Z,13.80
2019-02-27T17:50:31.656Z,13.70
2019-02-27T17:52:59.474Z,13.60
2019-02-27T17:55:28.304Z,13.40
2019-02-27T17:57:58.512Z,13.30
2019-02-27T18:00:30.124Z,13.30
2019-02-27T18:02:58.873Z,13.20
2019-02-27T18:05:28.133Z,13.20
2019-02-27T18:07:57.091Z,13.10
2019-02-27T18:10:25.865Z,13.00
2019-02-27T18:12:54.781Z,13.00
2019-02-27T18:15:24.509Z,12.90
2019-02-27T18:17:53.510Z,12.90
2019-02-27T18:20:25.557Z,13.00
2019-02-27T18:22:52.888Z,12.90
2019-02-27T18:25:22.866Z,12.90
2019-02-27T18:27:51.640Z,12.70
2019-02-27T18:30:24.563Z,12.70
2019-02-27T18:32:53.425Z,12.70
2019-02-27T18:35:22.212Z,12.60
2019-02-27T18:37:54.371Z,12.50
2019-02-27T18:40:21.829Z,12.50
2019-02-27T18:42:55.302Z,12.50
2019-02-27T18:45:22.857Z,12.40
2019-02-27T18:47:51.716Z,12.40
2019-02-27T18:50:20.548Z,12.30
2019-02-27T18:52:49.895Z,12.30
2019-02-27T18:55:18.645Z,12.30
2019-02-27T18:57:47.664Z,12.20
2019-02-27T19:00:24.548Z,12.10
2019-02-27T19:02:58.672Z,12.10
2019-02-27T19:05:27.706Z,12.00
2019-02-27T19:07:56.505Z,11.90
2019-02-27T19:10:25.475Z,11.90
2019-02-27T19:12:54.338Z,11.80
2019-02-27T19:15:25.235Z,11.70
2019-02-27T19:17:54.302Z,11.70
2019-02-27T19:20:38.086Z,11.70
2019-02-27T19:23:09.741Z,11.60
2019-02-27T19:25:38.632Z,11.60
2019-02-27T19:28:07.524Z,11.60
2019-02-27T19:30:38.702Z,11.60
2019-02-27T19:33:07.254Z,11.60
2019-02-27T19:35:36.118Z,11.50
2019-02-27T19:38:04.906Z,11.40
2019-02-27T19:40:33.733Z,11.40
2019-02-27T19:43:04.054Z,11.30
2019-02-27T19:45:35.985Z,11.30
2019-02-27T19:48:03.371Z,11.30
2019-02-27T19:50:32.125Z,11.30
2019-02-27T19:53:05.180Z,11.20
2019-02-27T19:55:31.372Z,11.10
2019-02-27T19:58:00.240Z,11.10
2019-02-27T20:00:35.039Z,11.10
2019-02-27T20:03:01.851Z,11.10
2019-02-27T20:05:30.762Z,11.10
2019-02-27T20:07:59.811Z,11.00
2019-02-27T20:10:30.912Z,11.00
2019-02-27T20:12:59.251Z,10.90
2019-02-27T20:15:28.230Z,10.90
2019-02-27T20:17:57.184Z,10.80
2019-02-27T20:20:26.113Z,10.80
2019-02-27T20:22:55.215Z,10.80
2019-02-27T20:25:26.002Z,10.70
2019-02-27T20:27:57.846Z,10.70
2019-02-27T20:30:25.945Z,10.70
2019-02-27T20:32:54.878Z,10.70
2019-02-27T20:35:23.642Z,10.60
2019-02-27T20:37:52.508Z,10.50
2019-02-27T20:40:21.390Z,10.50
2019-02-27T20:42:54.697Z,10.50
2019-02-27T20:45:21.947Z,10.40
2019-02-27T20:47:57.620Z,10.30
2019-02-27T20:50:40.046Z,10.30
2019-02-27T20:53:10.968Z,10.20
2019-02-27T20:55:39.737Z,10.20
2019-02-27T20:58:08.531Z,10.20
2019-02-27T21:00:37.376Z,10.10
2019-02-27T21:03:06.136Z,10.10
2019-02-27T21:05:34.888Z,10.10
2019-02-27T21:08:04.018Z,10.00
2019-02-27T21:10:33.381Z,10.00
2019-02-27T21:13:02.145Z,9.90
2019-02-27T21:15:32.585Z,9.90
2019-02-27T21:18:01.635Z,9.90
2019-02-27T21:20:30.478Z,9.90
2019-02-27T21:23:00.248Z,9.80
2019-02-27T21:25:30.101Z,9.80
2019-02-27T21:27:58.876Z,9.80
2019-02-27T21:30:27.754Z,9.70
2019-02-27T21:32:56.747Z,9.70
2019-02-27T21:35:28.724Z,9.60
2019-02-27T21:37:56.056Z,9.60
2019-02-27T21:40:24.872Z,9.50
2019-02-27T21:42:53.726Z,9.50
2019-02-27T21:45:23.395Z,9.50
2019-02-27T21:47:52.917Z,9.40
2019-02-27T21:50:27.516Z,9.40
2019-02-27T21:52:56.310Z,9.30
2019-02-27T21:55:25.214Z,9.30
2019-02-27T21:57:54.244Z,9.30
2019-02-27T22:00:28.072Z,9.30
2019-02-27T22:02:57.743Z,9.20
2019-02-27T22:05:26.548Z,9.20
2019-02-27T22:07:55.445Z,9.20
2019-02-27T22:10:24.194Z,9.20
2019-02-27T22:12:53.063Z,9.10
2019-02-27T22:15:30.232Z,9.20
2019-02-27T22:17:59.018Z,9.10
2019-02-27T22:20:29.437Z,9.10
2019-02-27T22:22:58.465Z,9.10
2019-02-27T22:25:31.024Z,9.10
2019-02-27T22:27:58.445Z,9.10
2019-02-27T22:30:27.377Z,9.10
2019-02-27T22:32:56.139Z,9.10
2019-02-27T22:35:24.917Z,9.10
2019-02-27T22:37:53.822Z,9.00
2019-02-27T22:40:23.610Z,9.00
2019-02-27T22:42:52.414Z,9.00
2019-02-27T22:45:21.465Z,9.10
2019-02-27T22:47:54.002Z,9.00
2019-02-27T22:50:21.653Z,9.00
2019-02-27T22:52:54.259Z,9.00
2019-02-27T22:55:21.061Z,8.90
2019-02-27T22:57:49.855Z,8.90
2019-02-27T23:00:44.127Z,8.90
2019-02-27T23:03:12.930Z,8.80
2019-02-27T23:05:41.697Z,8.70
2019-02-27T23:08:10.474Z,8.70
2019-02-27T23:10:39.239Z,8.70
2019-02-27T23:13:12.392Z,8.70
2019-02-27T23:15:40.033Z,8.60
2019-02-27T23:18:08.874Z,8.60
2019-02-27T23:20:37.649Z,8.60
2019-02-27T23:23:06.447Z,8.50
2019-02-27T23:25:35.200Z,8.50
2019-02-27T23:28:04.031Z,8.50
2019-02-27T23:30:32.776Z,8.50
2019-02-27T23:33:02.237Z,8.50
2019-02-27T23:35:31.712Z,8.50
2019-02-27T23:38:03.227Z,8.60
2019-02-27T23:40:31.046Z,8.60
2019-02-27T23:43:03.404Z,8.50
2019-02-27T23:45:30.265Z,8.50
2019-02-27T23:47:59.247Z,8.60
2019-02-27T23:50:29.536Z,8.50
2019-02-27T23:52:58.316Z,8.50
2019-02-27T23:55:27.052Z,8.50
2019-02-27T23:57:57.806Z,8.40
